Time,TemperatureF,DewpointF,PressureIn,WindDirection,WindDirectionDegrees,WindSpeedMPH,WindSpeedGustMPH,Humidity,HourlyPrecipIn,Conditions,Clouds,dailyrainin,SoftwareType,DateUTC
2013-03-11 00:00:00,37.0,35.5,29.36,SE,135,0.0,0.0,94,0.00,,,0.00,WUHU216HW,2013-03-11 05:00:00,
2013-03-11 00:05:00,37.1,35.8,29.36,WSW,248,0.0,0.0,95,0.00,,,0.00,WUHU216HW,2013-03-11 05:05:00,
2013-03-11 00:10:00,36.9,35.3,29.36,NW,315,0.0,0.0,94,0.00,,,0.00,WUHU216HW,2013-03-11 05:10:00,
2013-03-11 00:15:00,36.5,35.2,29.36,NW,315,0.0,0.2,95,0.00,,,0.00,WUHU216HW,2013-03-11 05:15:00,
2013-03-11 00:20:00,36.5,35.2,29.36,ENE,68,0.2,0.2,95,0.00,,,0.00,WUHU216HW,2013-03-11 05:20:00,
2013-03-11 00:25:00,36.7,35.4,29.36,North,0,0.0,0.2,95,0.00,,,0.00,WUHU216HW,2013-03-11 05:25:00,
2013-03-11 00:30:00,36.8,35.5,29.36,SSW,203,0.2,0.2,95,0.00,,,0.00,WUHU216HW,2013-03-11 05:30:00,
2013-03-11 00:35:00,36.8,35.5,29.36,NNW,338,0.0,0.2,95,0.00,,,0.00,WUHU216HW,2013-03-11 05:35:00,
2013-03-11 00:40:00,37.0,35.7,29.36,NW,315,1.3,1.3,95,0.00,,,0.00,WUHU216HW,2013-03-11 05:40:00,
2013-03-11 00:45:00,37.0,35.7,29.37,NW,315,0.0,1.3,95,0.00,,,0.00,WUHU216HW,2013-03-11 05:45:00,
2013-03-11 00:50:00,37.0,35.7,29.36,NNW,338,0.0,1.3,95,0.00,,,0.00,WUHU216HW,2013-03-11 05:50:00,
2013-03-11 00:55:00,37.1,35.7,29.36,NNW,338,0.0,0.0,95,0.00,,,0.00,WUHU216HW,2013-03-11 05:55:00,
2013-03-11 01:00:00,37.1,35.8,29.36,NNW,338,0.0,0.0,95,0.00,,,0.00,WUHU216HW,2013-03-11 06:00:00,
2013-03-11 01:05:00,36.9,35.6,29.36,NNW,338,0.0,0.0,95,0.00,,,0.00,WUHU216HW,2013-03-11 06:05:00,
2013-03-11 01:10:00,36.9,35.6,29.36,North,349,0.3,0.4,95,0.00,,,0.00,WUHU216HW,2013-03-11 06:10:00,
2013-03-11 01:15:00,36.7,35.4,29.36,NNW,338,0.0,0.4,95,0.00,,,0.00,WUHU216HW,2013-03-11 06:15:00,
2013-03-11 01:20:00,36.5,35.2,29.36,WNW,293,0.6,0.7,95,0.00,,,0.00,WUHU216HW,2013-03-11 06:20:00,
2013-03-11 01:25:00,36.5,35.2,29.35,WNW,293,0.0,0.7,95,0.00,,,0.00,WUHU216HW,2013-03-11 06:25:00,
2013-03-11 01:30:00,36.5,35.2,29.35,NNW,338,0.2,0.2,95,0.00,,,0.00,WUHU216HW,2013-03-11 06:30:00,
2013-03-11 01:35:00,36.5,35.2,29.35,West,259,0.5,1.3,95,0.00,,,0.00,WUHU216HW,2013-03-11 06:35:00,
2013-03-11 01:40:00,36.6,35.2,29.35,West,270,0.4,1.3,95,0.00,,,0.00,WUHU216HW,2013-03-11 06:40:00,
2013-03-11 01:45:00,36.6,35.3,29.35,SSE,158,0.0,0.4,95,0.00,,,0.00,WUHU216HW,2013-03-11 06:45:00,
2013-03-11 01:50:00,36.6,35.3,29.35,NNW,338,0.0,0.4,95,0.00,,,0.00,WUHU216HW,2013-03-11 06:50:00,
2013-03-11 01:55:00,36.6,35.3,29.35,NNW,338,0.2,0.2,95,0.00,,,0.00,WUHU216HW,2013-03-11 06:55:00,
2013-03-11 02:00:00,36.6,35.3,29.35,NW,315,0.3,0.4,95,0.00,,,0.00,WUHU216HW,2013-03-11 07:00:00,
2013-03-11 02:05:00,36.5,35.2,29.35,NNE,23,0.0,0.4,95,0.00,,,0.00,WUHU216HW,2013-03-11 07:05:00,
2013-03-11 02:10:00,36.5,35.2,29.35,NNE,23,0.0,0.2,95,0.00,,,0.00,WUHU216HW,2013-03-11 07:10:00,
2013-03-11 02:15:00,36.5,35.2,29.35,NNW,338,0.0,0.0,95,0.00,,,0.00,WUHU216HW,2013-03-11 07:15:00,
2013-03-11 02:20:00,36.3,35.0,29.35,NW,315,0.0,0.2,95,0.00,,,0.00,WUHU216HW,2013-03-11 07:20:00,
2013-03-11 02:25:00,36.3,35.0,29.35,NW,315,0.0,0.2,95,0.00,,,0.00,WUHU216HW,2013-03-11 07:25:00,
2013-03-11 02:30:00,36.1,34.8,29.35,NE,45,0.0,0.0,95,0.00,,,0.00,WUHU216HW,2013-03-11 07:30:00,
2013-03-11 02:35:00,36.1,34.8,29.35,ENE,68,0.0,0.0,95,0.00,,,0.00,WUHU216HW,2013-03-11 07:35:00,
2013-03-11 02:40:00,36.1,34.8,29.35,NNW,338,0.0,0.0,95,0.00,,,0.00,WUHU216HW,2013-03-11 07:40:00,
2013-03-11 02:45:00,36.1,34.8,29.35,North,0,0.4,0.4,95,0.00,,,0.00,WUHU216HW,2013-03-11 07:45:00,
2013-03-11 02:50:00,36.1,34.8,29.35,SW,225,0.4,0.4,95,0.00,,,0.00,WUHU216HW,2013-03-11 07:50:00,
2013-03-11 02:55:00,36.1,34.8,29.36,SSW,203,0.3,0.4,95,0.00,,,0.00,WUHU216HW,2013-03-11 07:55:00,
2013-03-11 03:00:00,36.1,34.8,29.36,SSW,203,0.2,0.4,95,0.00,,,0.00,WUHU216HW,2013-03-11 08:00:00,
2013-03-11 03:05:00,36.1,34.8,29.36,SSW,203,0.0,0.2,95,0.00,,,0.00,WUHU216HW,2013-03-11 08:05:00,
2013-03-11 03:10:00,35.9,34.6,29.35,SSW,203,0.0,0.0,95,0.00,,,0.00,WUHU216HW,2013-03-11 08:10:00,
2013-03-11 03:15:00,35.9,34.6,29.35,ENE,68,0.0,0.2,95,0.00,,,0.00,WUHU216HW,2013-03-11 08:15:00,
2013-03-11 03:20:00,36.1,34.7,29.35,East,90,0.2,0.2,95,0.00,,,0.00,WUHU216HW,2013-03-11 08:20:00,
2013-03-11 03:25:00,36.0,34.7,29.34,ESE,113,0.0,0.4,95,0.00,,,0.00,WUHU216HW,2013-03-11 08:25:00,
2013-03-11 03:30:00,36.0,34.7,29.34,South,180,0.0,0.4,95,0.00,,,0.00,WUHU216HW,2013-03-11 08:30:00,
2013-03-11 03:35:00,36.0,34.7,29.34,South,180,0.0,0.2,95,0.00,,,0.00,WUHU216HW,2013-03-11 08:35:00,
2013-03-11 03:40:00,35.8,34.5,29.33,South,180,0.0,0.0,95,0.00,,,0.00,WUHU216HW,2013-03-11 08:40:00,
2013-03-11 03:45:00,35.8,34.5,29.33,South,180,0.0,0.0,95,0.00,,,0.00,WUHU216HW,2013-03-11 08:45:00,
2013-03-11 03:50:00,36.0,34.7,29.33,South,180,0.0,0.0,95,0.00,,,0.00,WUHU216HW,2013-03-11 08:50:00,
2013-03-11 03:55:00,35.8,34.5,29.33,South,180,0.0,0.0,95,0.00,,,0.00,WUHU216HW,2013-03-11 08:55:00,
2013-03-11 04:00:00,35.8,34.5,29.32,South,180,0.0,0.0,95,0.00,,,0.00,WUHU216HW,2013-03-11 09:00:00,
2013-03-11 04:05:00,35.8,34.4,29.32,South,180,0.0,0.0,95,0.00,,,0.00,WUHU216HW,2013-03-11 09:05:00,
2013-03-11 04:10:00,35.5,34.2,29.32,South,180,0.0,0.0,95,0.00,,,0.00,WUHU216HW,2013-03-11 09:10:00,
2013-03-11 04:15:00,35.5,34.2,29.32,South,180,0.0,0.0,95,0.00,,,0.00,WUHU216HW,2013-03-11 09:15:00,
2013-03-11 04:20:00,35.5,34.2,29.32,South,180,0.0,0.0,95,0.00,,,0.00,WUHU216HW,2013-03-11 09:20:00,
2013-03-11 04:25:00,35.5,34.2,29.32,South,180,0.0,0.0,95,0.00,,,0.00,WUHU216HW,2013-03-11 09:25:00,
2013-03-11 04:30:00,35.4,34.1,29.32,South,180,0.0,0.0,95,0.00,,,0.00,WUHU216HW,2013-03-11 09:30:00,
2013-03-11 04:35:00,35.3,34.0,29.32,South,180,0.0,0.0,95,0.00,,,0.00,WUHU216HW,2013-03-11 09:35:00,
2013-03-11 04:40:00,35.3,34.0,29.32,South,180,0.0,0.0,95,0.00,,,0.00,WUHU216HW,2013-03-11 09:40:00,
2013-03-11 04:45:00,35.1,33.8,29.32,South,180,0.0,0.0,95,0.00,,,0.00,WUHU216HW,2013-03-11 09:45:00,
2013-03-11 04:50:00,35.1,33.8,29.32,South,180,0.0,0.0,95,0.01,,,0.01,WUHU216HW,2013-03-11 09:50:00,
2013-03-11 04:55:00,35.1,33.8,29.32,West,270,0.2,0.2,95,0.01,,,0.01,WUHU216HW,2013-03-11 09:55:00,
2013-03-11 05:00:00,35.0,33.7,29.33,West,270,0.0,0.4,95,0.01,,,0.01,WUHU216HW,2013-03-11 10:00:00,
2013-03-11 05:05:00,35.0,33.7,29.33,SW,225,0.0,0.4,95,0.01,,,0.01,WUHU216HW,2013-03-11 10:05:00,
2013-03-11 05:10:00,35.0,33.7,29.33,SW,225,0.0,0.4,95,0.01,,,0.01,WUHU216HW,2013-03-11 10:10:00,
2013-03-11 05:15:00,35.0,33.7,29.33,West,270,0.4,0.4,95,0.01,,,0.01,WUHU216HW,2013-03-11 10:15:00,
2013-03-11 05:20:00,34.9,33.6,29.32,West,270,0.2,0.7,95,0.01,,,0.01,WUHU216HW,2013-03-11 10:20:00,
2013-03-11 05:25:00,34.7,33.4,29.33,WNW,293,0.4,0.7,95,0.01,,,0.01,WUHU216HW,2013-03-11 10:25:00,
2013-03-11 05:30:00,34.9,33.6,29.33,West,270,0.4,1.1,95,0.01,,,0.01,WUHU216HW,2013-03-11 10:30:00,
2013-03-11 05:35:00,34.9,33.6,29.34,WSW,252,0.3,1.1,95,0.01,,,0.01,WUHU216HW,2013-03-11 10:35:00,
2013-03-11 05:40:00,34.6,33.3,29.34,NW,315,0.2,0.4,95,0.01,,,0.01,WUHU216HW,2013-03-11 10:40:00,
2013-03-11 05:45:00,34.6,33.3,29.34,WNW,293,0.4,0.7,95,0.01,,,0.01,WUHU216HW,2013-03-11 10:45:00,
2013-03-11 05:50:00,34.6,33.3,29.34,West,263,0.4,0.7,95,0.00,,,0.01,WUHU216HW,2013-03-11 10:50:00,
2013-03-11 05:55:00,34.6,33.3,29.34,WSW,248,0.4,0.4,95,0.00,,,0.01,WUHU216HW,2013-03-11 10:55:00,
2013-03-11 06:00:00,34.5,33.2,29.35,SE,144,0.2,0.7,95,0.00,,,0.01,WUHU216HW,2013-03-11 11:00:00,
2013-03-11 06:05:00,34.5,33.2,29.35,WSW,251,0.3,1.3,95,0.00,,,0.01,WUHU216HW,2013-03-11 11:05:00,
2013-03-11 06:10:00,34.5,33.2,29.35,West,270,0.0,1.3,95,0.01,,,0.02,WUHU216HW,2013-03-11 11:10:00,
2013-03-11 06:15:00,34.5,33.2,29.35,ESE,113,0.2,0.4,95,0.01,,,0.02,WUHU216HW,2013-03-11 11:15:00,
2013-03-11 06:20:00,34.4,33.1,29.35,WNW,293,0.0,0.4,95,0.01,,,0.02,WUHU216HW,2013-03-11 11:20:00,
2013-03-11 06:25:00,34.4,33.1,29.35,West,259,0.4,0.4,95,0.01,,,0.02,WUHU216HW,2013-03-11 11:25:00,
2013-03-11 06:30:00,34.4,33.1,29.35,West,270,0.0,0.4,95,0.01,,,0.02,WUHU216HW,2013-03-11 11:30:00,
2013-03-11 06:35:00,34.3,33.0,29.36,WSW,248,0.2,1.6,95,0.01,,,0.02,WUHU216HW,2013-03-11 11:35:00,
2013-03-11 06:40:00,34.3,33.0,29.36,West,270,0.0,1.6,95,0.01,,,0.02,WUHU216HW,2013-03-11 11:40:00,
2013-03-11 06:45:00,34.3,33.0,29.36,West,275,0.2,0.4,95,0.01,,,0.02,WUHU216HW,2013-03-11 11:45:00,
2013-03-11 06:50:00,34.3,33.0,29.36,WNW,293,0.2,0.4,95,0.01,,,0.02,WUHU216HW,2013-03-11 11:50:00,
2013-03-11 06:55:00,34.0,32.7,29.36,WSW,246,0.4,0.9,95,0.01,,,0.02,WUHU216HW,2013-03-11 11:55:00,
2013-03-11 07:00:00,34.0,32.7,29.36,West,270,0.4,0.9,95,0.02,,,0.03,WUHU216HW,2013-03-11 12:00:00,
2013-03-11 07:05:00,34.0,32.7,29.36,WNW,293,0.0,0.7,95,0.02,,,0.03,WUHU216HW,2013-03-11 12:05:00,
2013-03-11 07:10:00,34.0,32.7,29.36,SE,135,0.0,0.7,95,0.01,,,0.03,WUHU216HW,2013-03-11 12:10:00,
2013-03-11 07:15:00,33.8,32.5,29.36,West,270,0.0,0.7,95,0.01,,,0.03,WUHU216HW,2013-03-11 12:15:00,
2013-03-11 07:20:00,33.8,32.5,29.36,West,265,0.4,1.1,95,0.01,,,0.03,WUHU216HW,2013-03-11 12:20:00,
2013-03-11 07:25:00,33.7,32.4,29.36,West,270,0.0,1.1,95,0.01,,,0.03,WUHU216HW,2013-03-11 12:25:00,
2013-03-11 07:30:00,33.5,31.9,29.36,NW,315,0.4,0.9,94,0.02,,,0.04,WUHU216HW,2013-03-11 12:30:00,
2013-03-11 07:35:00,33.5,31.9,29.36,West,270,0.0,0.4,94,0.02,,,0.04,WUHU216HW,2013-03-11 12:35:00,
2013-03-11 07:40:00,33.3,31.7,29.36,WSW,248,0.0,0.4,94,0.02,,,0.04,WUHU216HW,2013-03-11 12:40:00,
2013-03-11 07:45:00,33.3,31.7,29.36,WSW,244,0.6,0.9,94,0.02,,,0.04,WUHU216HW,2013-03-11 12:45:00,
2013-03-11 07:50:00,33.3,31.7,29.36,NNW,338,0.0,0.9,94,0.02,,,0.04,WUHU216HW,2013-03-11 12:50:00,
2013-03-11 07:55:00,33.5,31.9,29.36,West,270,0.9,0.9,94,0.02,,,0.04,WUHU216HW,2013-03-11 12:55:00,
2013-03-11 08:00:00,33.5,31.9,29.36,WSW,248,0.2,1.1,94,0.01,,,0.04,WUHU216HW,2013-03-11 13:00:00,
2013-03-11 08:05:00,33.5,31.9,29.36,West,277,0.2,1.8,94,0.01,,,0.04,WUHU216HW,2013-03-11 13:05:00,
2013-03-11 08:10:00,33.5,31.9,29.35,West,270,0.0,1.8,94,0.01,,,0.04,WUHU216HW,2013-03-11 13:10:00,
2013-03-11 08:15:00,33.7,32.4,29.35,West,279,0.3,0.7,95,0.01,,,0.04,WUHU216HW,2013-03-11 13:15:00,
2013-03-11 08:20:00,33.8,32.5,29.35,NNW,338,0.4,1.1,95,0.01,,,0.04,WUHU216HW,2013-03-11 13:20:00,
2013-03-11 08:25:00,33.8,32.8,29.35,WSW,250,1.0,1.3,96,0.01,,,0.04,WUHU216HW,2013-03-11 13:25:00,
2013-03-11 08:30:00,33.8,32.8,29.36,West,273,0.4,1.3,96,0.00,,,0.04,WUHU216HW,2013-03-11 13:30:00,
2013-03-11 08:35:00,33.8,32.8,29.36,WSW,255,0.6,1.3,96,0.00,,,0.04,WUHU216HW,2013-03-11 13:35:00,
2013-03-11 08:40:00,33.8,32.8,29.36,West,270,1.3,1.3,96,0.00,,,0.04,WUHU216HW,2013-03-11 13:40:00,
2013-03-11 08:45:00,33.8,32.8,29.36,West,268,0.5,1.3,96,0.00,,,0.04,WUHU216HW,2013-03-11 13:45:00,
2013-03-11 08:50:00,33.8,32.8,29.36,NW,306,0.4,1.3,96,0.00,,,0.04,WUHU216HW,2013-03-11 13:50:00,
2013-03-11 08:55:00,34.0,33.0,29.36,NNW,338,0.9,2.0,96,0.00,,,0.04,WUHU216HW,2013-03-11 13:55:00,
2013-03-11 09:00:00,34.2,33.2,29.35,WNW,283,0.8,2.0,96,0.00,,,0.04,WUHU216HW,2013-03-11 14:00:00,
2013-03-11 09:05:00,34.2,33.2,29.36,WSW,246,0.3,1.1,96,0.00,,,0.04,WUHU216HW,2013-03-11 14:05:00,
2013-03-11 09:10:00,34.2,32.9,29.36,West,270,0.8,1.8,95,0.00,,,0.04,WUHU216HW,2013-03-11 14:10:00,
2013-03-11 09:15:00,34.2,32.9,29.36,West,280,0.7,1.8,95,0.00,,,0.04,WUHU216HW,2013-03-11 14:15:00,
2013-03-11 09:20:00,34.2,32.9,29.36,WSW,248,0.4,1.1,95,0.01,,,0.05,WUHU216HW,2013-03-11 14:20:00,
2013-03-11 09:25:00,34.2,32.9,29.36,WSW,258,0.8,1.3,95,0.01,,,0.05,WUHU216HW,2013-03-11 14:25:00,
2013-03-11 09:30:00,34.2,32.9,29.36,WNW,287,0.6,2.0,95,0.01,,,0.05,WUHU216HW,2013-03-11 14:30:00,
2013-03-11 09:35:00,34.2,33.2,29.36,West,271,1.3,2.0,96,0.01,,,0.05,WUHU216HW,2013-03-11 14:35:00,
2013-03-11 09:40:00,34.2,33.2,29.36,West,264,0.6,1.8,96,0.01,,,0.05,WUHU216HW,2013-03-11 14:40:00,
2013-03-11 09:45:00,34.2,33.2,29.36,West,263,1.0,2.5,96,0.01,,,0.05,WUHU216HW,2013-03-11 14:45:00,
2013-03-11 09:50:00,34.2,33.2,29.37,WNW,293,1.6,2.5,96,0.01,,,0.05,WUHU216HW,2013-03-11 14:50:00,
2013-03-11 09:55:00,34.2,33.2,29.37,West,267,1.0,1.6,96,0.01,,,0.05,WUHU216HW,2013-03-11 14:55:00,
2013-03-11 10:00:00,34.2,33.2,29.37,West,277,0.6,1.6,96,0.01,,,0.05,WUHU216HW,2013-03-11 15:00:00,
2013-03-11 10:11:00,34.2,33.2,29.37,West,270,0.9,1.8,96,0.01,,,0.05,WUHU216HW,2013-03-11 15:11:00,
2013-03-11 10:16:00,34.2,33.2,29.37,West,270,0.2,0.2,96,0.01,,,0.05,WUHU216HW,2013-03-11 15:16:00,
2013-03-11 11:00:00,33.7,32.4,29.39,West,270,0.7,0.7,95,0.00,,,0.05,WUHU216HW,2013-03-11 16:00:00,
2013-03-11 11:05:00,33.8,32.5,29.39,NW,310,0.7,1.8,95,0.00,,,0.05,WUHU216HW,2013-03-11 16:05:00,
2013-03-11 11:10:00,33.5,31.9,29.38,WSW,238,1.6,3.6,94,0.00,,,0.05,WUHU216HW,2013-03-11 16:10:00,
2013-03-11 11:15:00,33.5,31.9,29.38,West,270,0.7,3.6,94,0.00,,,0.05,WUHU216HW,2013-03-11 16:15:00,
2013-03-11 11:20:00,33.7,32.4,29.38,WNW,284,0.7,1.6,95,0.01,,,0.06,WUHU216HW,2013-03-11 16:20:00,
2013-03-11 11:25:00,33.5,31.9,29.38,West,270,1.6,2.9,94,0.01,,,0.06,WUHU216HW,2013-03-11 16:25:00,
2013-03-11 11:30:00,33.5,31.9,29.39,NW,319,1.7,2.9,94,0.01,,,0.06,WUHU216HW,2013-03-11 16:30:00,
2013-03-11 11:35:00,33.5,31.9,29.39,WSW,248,1.1,2.7,94,0.01,,,0.06,WUHU216HW,2013-03-11 16:35:00,
2013-03-11 11:40:00,33.5,31.9,29.39,West,270,1.3,2.7,94,0.01,,,0.06,WUHU216HW,2013-03-11 16:40:00,
2013-03-11 11:45:00,33.7,32.4,29.39,NNW,331,0.9,2.5,95,0.01,,,0.06,WUHU216HW,2013-03-11 16:45:00,
2013-03-11 11:50:00,33.8,32.5,29.39,NW,315,1.6,2.5,95,0.01,,,0.06,WUHU216HW,2013-03-11 16:50:00,
2013-03-11 11:55:00,33.8,32.5,29.39,SW,225,3.1,3.1,95,0.01,,,0.06,WUHU216HW,2013-03-11 16:55:00,
2013-03-11 12:00:00,33.7,32.1,29.39,SW,221,1.7,4.3,94,0.01,,,0.06,WUHU216HW,2013-03-11 17:00:00,
2013-03-11 12:05:00,33.8,32.2,29.40,West,270,0.9,4.3,94,0.01,,,0.06,WUHU216HW,2013-03-11 17:05:00,
2013-03-11 12:10:00,33.8,32.2,29.40,SW,225,0.4,2.0,94,0.01,,,0.06,WUHU216HW,2013-03-11 17:10:00,
2013-03-11 12:15:00,33.7,32.1,29.40,SW,229,2.6,5.4,94,0.01,,,0.06,WUHU216HW,2013-03-11 17:15:00,
2013-03-11 12:20:00,33.7,32.1,29.40,WSW,246,0.4,5.4,94,0.00,,,0.06,WUHU216HW,2013-03-11 17:20:00,
2013-03-11 12:25:00,33.7,32.1,29.40,West,274,1.2,3.4,94,0.00,,,0.06,WUHU216HW,2013-03-11 17:25:00,
2013-03-11 12:30:00,33.7,31.9,29.40,WSW,254,2.0,3.6,93,0.00,,,0.06,WUHU216HW,2013-03-11 17:30:00,
2013-03-11 12:35:00,33.4,31.6,29.40,WSW,248,0.7,3.6,93,0.00,,,0.06,WUHU216HW,2013-03-11 17:35:00,
2013-03-11 12:40:00,33.3,31.5,29.40,WSW,240,0.8,2.5,93,0.00,,,0.06,WUHU216HW,2013-03-11 17:40:00,
2013-03-11 12:45:00,33.0,31.2,29.40,WSW,248,2.9,2.9,93,0.00,,,0.06,WUHU216HW,2013-03-11 17:45:00,
2013-03-11 12:50:00,33.0,31.1,29.40,NW,323,0.7,5.4,93,0.00,,,0.06,WUHU216HW,2013-03-11 17:50:00,
2013-03-11 12:55:00,33.1,31.2,29.40,WSW,248,1.1,5.4,93,0.00,,,0.06,WUHU216HW,2013-03-11 17:55:00,
2013-03-11 13:00:00,33.0,31.2,29.40,WSW,248,1.1,1.8,93,0.00,,,0.06,WUHU216HW,2013-03-11 18:00:00,
2013-03-11 13:05:00,32.9,30.5,29.40,SW,215,1.8,2.9,91,0.00,,,0.06,WUHU216HW,2013-03-11 18:05:00,
2013-03-11 13:10:00,32.8,30.5,29.40,North,0,1.8,3.1,91,0.00,,,0.06,WUHU216HW,2013-03-11 18:10:00,
2013-03-11 13:15:00,32.7,30.4,29.40,West,260,1.2,3.1,91,0.00,,,0.06,WUHU216HW,2013-03-11 18:15:00,
2013-03-11 13:20:00,32.9,30.8,29.40,WNW,293,1.1,2.0,92,0.00,,,0.06,WUHU216HW,2013-03-11 18:20:00,
2013-03-11 13:25:00,32.8,30.2,29.40,West,270,2.0,2.9,90,0.00,,,0.06,WUHU216HW,2013-03-11 18:25:00,
2013-03-11 13:30:00,32.7,30.3,29.40,WSW,248,2.5,3.1,91,0.00,,,0.06,WUHU216HW,2013-03-11 18:30:00,
2013-03-11 13:35:00,32.6,30.3,29.40,South,180,2.0,3.1,91,0.00,,,0.06,WUHU216HW,2013-03-11 18:35:00,
2013-03-11 13:36:00,32.6,30.3,29.40,SSW,203,4.3,4.3,91,0.00,,,0.06,WUHU216HW,2013-03-11 18:36:00,
2013-03-11 13:50:00,32.5,29.9,29.40,NW,324,2.0,4.0,90,0.00,,,0.06,WUHU216HW,2013-03-11 18:50:00,
2013-03-11 13:57:00,32.3,29.4,29.40,West,276,2.5,4.0,89,0.00,,,0.06,WUHU216HW,2013-03-11 18:57:00,
2013-03-11 14:03:00,32.8,30.1,29.40,WSW,248,5.1,5.1,90,0.01,,,0.07,WUHU216HW,2013-03-11 19:03:00,
2013-03-11 14:06:00,32.7,29.8,29.40,SW,221,2.6,5.1,89,0.01,,,0.07,WUHU216HW,2013-03-11 19:06:00,
2013-03-11 14:09:00,32.9,30.0,29.40,West,281,2.1,5.1,89,0.01,,,0.07,WUHU216HW,2013-03-11 19:09:00,
2013-03-11 14:15:00,32.6,29.7,29.40,SW,225,0.7,4.7,89,0.01,,,0.07,WUHU216HW,2013-03-11 19:15:00,
2013-03-11 14:21:00,32.4,28.9,29.40,SSW,212,2.8,6.0,87,0.01,,,0.07,WUHU216HW,2013-03-11 19:21:00,
2013-03-11 14:34:00,32.0,29.2,29.40,NW,315,3.4,4.7,89,0.01,,,0.07,WUHU216HW,2013-03-11 19:34:00,
2013-03-11 14:39:00,31.9,28.7,29.41,WSW,256,3.2,6.0,88,0.01,,,0.07,WUHU216HW,2013-03-11 19:39:00,
2013-03-11 14:44:00,32.2,29.0,29.41,WSW,254,2.0,6.0,88,0.01,,,0.07,WUHU216HW,2013-03-11 19:44:00,
2013-03-11 14:49:00,31.9,28.5,29.41,WSW,248,5.4,5.4,87,0.01,,,0.07,WUHU216HW,2013-03-11 19:49:00,
2013-03-11 14:54:00,31.6,28.4,29.41,West,270,2.2,5.4,88,0.01,,,0.07,WUHU216HW,2013-03-11 19:54:00,
2013-03-11 14:59:00,31.4,28.2,29.41,NW,315,1.6,5.4,88,0.00,,,0.07,WUHU216HW,2013-03-11 19:59:00,
2013-03-11 15:04:00,31.6,28.7,29.42,WNW,296,1.4,3.8,89,0.00,,,0.07,WUHU216HW,2013-03-11 20:04:00,
2013-03-11 15:09:00,31.3,27.9,29.42,West,270,2.7,4.0,87,0.00,,,0.07,WUHU216HW,2013-03-11 20:09:00,
2013-03-11 15:14:00,31.3,27.9,29.42,West,270,1.3,4.0,87,0.00,,,0.07,WUHU216HW,2013-03-11 20:14:00,
2013-03-11 15:19:00,31.1,27.7,29.42,WSW,248,5.6,5.6,87,0.00,,,0.07,WUHU216HW,2013-03-11 20:19:00,
2013-03-11 15:24:00,30.9,27.5,29.42,WSW,248,2.0,5.6,87,0.00,,,0.07,WUHU216HW,2013-03-11 20:24:00,
2013-03-11 15:29:00,31.1,27.9,29.42,South,180,2.5,5.6,88,0.00,,,0.07,WUHU216HW,2013-03-11 20:29:00,
2013-03-11 15:34:00,31.5,28.1,29.42,SSW,203,2.5,4.7,87,0.00,,,0.07,WUHU216HW,2013-03-11 20:34:00,
2013-03-11 15:39:00,31.7,28.3,29.43,NW,309,1.1,4.7,87,0.00,,,0.07,WUHU216HW,2013-03-11 20:39:00,
2013-03-11 15:44:00,32.0,28.8,29.43,East,90,1.8,3.8,88,0.00,,,0.07,WUHU216HW,2013-03-11 20:44:00,
2013-03-11 15:49:00,32.7,29.3,29.43,NW,317,1.6,3.4,87,0.00,,,0.07,WUHU216HW,2013-03-11 20:49:00,
2013-03-11 15:54:00,32.9,28.9,29.43,WNW,293,3.1,6.0,85,0.00,,,0.07,WUHU216HW,2013-03-11 20:54:00,
2013-03-11 15:59:00,32.5,28.5,29.44,WNW,298,3.7,6.3,85,0.00,,,0.07,WUHU216HW,2013-03-11 20:59:00,
2013-03-11 16:04:00,32.3,28.6,29.44,SSW,203,4.3,6.3,86,0.00,,,0.07,WUHU216HW,2013-03-11 21:04:00,
2013-03-11 16:09:00,32.1,28.1,29.44,West,277,1.4,6.3,85,0.00,,,0.07,WUHU216HW,2013-03-11 21:09:00,
2013-03-11 16:14:00,31.8,27.6,29.44,WNW,293,2.5,4.3,84,0.00,,,0.07,WUHU216HW,2013-03-11 21:14:00,
2013-03-11 16:19:00,31.7,27.4,29.44,WSW,240,1.6,3.4,84,0.00,,,0.07,WUHU216HW,2013-03-11 21:19:00,
2013-03-11 16:24:00,31.7,27.4,29.45,WNW,293,3.1,3.1,84,0.00,,,0.07,WUHU216HW,2013-03-11 21:24:00,
2013-03-11 16:29:00,31.1,27.2,29.45,WSW,248,2.5,4.0,85,0.00,,,0.07,WUHU216HW,2013-03-11 21:29:00,
2013-03-11 16:34:00,31.1,27.4,29.45,West,270,2.9,4.0,86,0.00,,,0.07,WUHU216HW,2013-03-11 21:34:00,
2013-03-11 16:39:00,31.1,26.9,29.45,WSW,250,2.8,6.3,84,0.00,,,0.07,WUHU216HW,2013-03-11 21:39:00,
2013-03-11 16:44:00,31.0,27.0,29.45,West,278,1.7,6.3,85,0.00,,,0.07,WUHU216HW,2013-03-11 21:44:00,
2013-03-11 16:49:00,30.8,26.9,29.46,SW,225,3.6,4.3,85,0.00,,,0.07,WUHU216HW,2013-03-11 21:49:00,
2013-03-11 16:54:00,30.9,27.2,29.46,WNW,293,1.8,4.3,86,0.00,,,0.07,WUHU216HW,2013-03-11 21:54:00,
2013-03-11 16:59:00,30.6,26.9,29.46,SW,232,2.1,4.3,86,0.00,,,0.07,WUHU216HW,2013-03-11 21:59:00,
2013-03-11 17:04:00,30.6,27.2,29.47,WSW,248,2.7,4.3,87,0.00,,,0.07,WUHU216HW,2013-03-11 22:04:00,
2013-03-11 17:09:00,30.7,27.3,29.47,WSW,248,3.8,3.8,87,0.00,,,0.07,WUHU216HW,2013-03-11 22:09:00,
2013-03-11 17:14:00,30.7,27.1,29.47,West,277,2.5,3.8,86,0.00,,,0.07,WUHU216HW,2013-03-11 22:14:00,
2013-03-11 17:19:00,30.7,27.0,29.48,WNW,293,1.9,3.8,86,0.00,,,0.07,WUHU216HW,2013-03-11 22:19:00,
2013-03-11 17:24:00,30.6,27.2,29.48,WNW,293,2.0,4.0,87,0.00,,,0.07,WUHU216HW,2013-03-11 22:24:00,
2013-03-11 17:29:00,30.7,27.0,29.48,WNW,293,5.4,6.3,86,0.00,,,0.07,WUHU216HW,2013-03-11 22:29:00,
2013-03-11 17:34:00,30.5,26.8,29.48,WNW,293,5.8,6.3,86,0.00,,,0.07,WUHU216HW,2013-03-11 22:34:00,
2013-03-11 17:39:00,30.4,26.4,29.49,WNW,293,2.9,8.5,85,0.00,,,0.07,WUHU216HW,2013-03-11 22:39:00,
2013-03-11 17:44:00,30.7,26.7,29.49,WNW,293,4.3,8.5,85,0.00,,,0.07,WUHU216HW,2013-03-11 22:44:00,
2013-03-11 17:49:00,30.8,26.8,29.49,WNW,293,2.4,5.1,85,0.00,,,0.07,WUHU216HW,2013-03-11 22:49:00,
2013-03-11 17:54:00,30.8,27.2,29.49,WNW,293,1.5,5.1,86,0.00,,,0.07,WUHU216HW,2013-03-11 22:54:00,
2013-03-11 17:59:00,30.9,27.2,29.50,WNW,293,1.7,4.0,86,0.00,,,0.07,WUHU216HW,2013-03-11 22:59:00,
2013-03-11 18:04:00,31.0,27.3,29.50,WNW,293,1.3,4.7,86,0.00,,,0.07,WUHU216HW,2013-03-11 23:04:00,
2013-03-11 18:09:00,30.9,27.2,29.50,WNW,293,1.7,4.7,86,0.00,,,0.07,WUHU216HW,2013-03-11 23:09:00,
2013-03-11 18:14:00,31.0,27.0,29.50,WNW,293,3.4,5.6,85,0.00,,,0.07,WUHU216HW,2013-03-11 23:14:00,
2013-03-11 18:19:00,31.1,27.4,29.50,WNW,293,1.6,5.6,86,0.00,,,0.07,WUHU216HW,2013-03-11 23:19:00,
2013-03-11 18:24:00,31.2,27.5,29.51,WNW,293,3.1,9.2,86,0.00,,,0.07,WUHU216HW,2013-03-11 23:24:00,
2013-03-11 18:29:00,31.2,27.5,29.51,WNW,293,2.2,9.2,86,0.00,,,0.07,WUHU216HW,2013-03-11 23:29:00,
2013-03-11 18:34:00,31.1,27.7,29.51,WNW,293,1.4,3.6,87,0.00,,,0.07,WUHU216HW,2013-03-11 23:34:00,
2013-03-11 18:39:00,31.0,27.3,29.51,WNW,293,4.3,4.9,86,0.00,,,0.07,WUHU216HW,2013-03-11 23:39:00,
2013-03-11 18:44:00,31.0,27.6,29.50,WNW,293,2.7,4.9,87,0.00,,,0.07,WUHU216HW,2013-03-11 23:44:00,
2013-03-11 18:49:00,30.8,27.1,29.51,WNW,293,3.4,4.3,86,0.00,,,0.07,WUHU216HW,2013-03-11 23:49:00,
2013-03-11 18:54:00,30.8,27.1,29.52,WNW,293,2.5,4.5,86,0.00,,,0.07,WUHU216HW,2013-03-11 23:54:00,
2013-03-11 18:59:00,30.8,27.1,29.53,WNW,293,0.7,4.9,86,0.00,,,0.07,WUHU216HW,2013-03-11 23:59:00,
2013-03-11 19:04:00,30.8,27.4,29.53,WNW,293,0.0,4.9,87,0.00,,,0.07,WUHU216HW,2013-03-12 00:04:00,
2013-03-11 19:09:00,30.6,27.2,29.53,WNW,293,0.0,0.0,87,0.00,,,0.07,WUHU216HW,2013-03-12 00:09:00,
2013-03-11 19:14:00,30.6,27.2,29.53,WNW,293,0.0,0.0,87,0.00,,,0.07,WUHU216HW,2013-03-12 00:14:00,
2013-03-11 19:19:00,30.6,26.9,29.53,WNW,293,0.0,0.0,86,0.00,,,0.07,WUHU216HW,2013-03-12 00:19:00,
2013-03-11 19:24:00,30.6,26.6,29.53,WNW,293,0.0,0.0,85,0.00,,,0.07,WUHU216HW,2013-03-12 00:24:00,
2013-03-11 19:29:00,30.6,26.9,29.53,WNW,293,0.0,0.0,86,0.00,,,0.07,WUHU216HW,2013-03-12 00:29:00,
2013-03-11 19:34:00,30.6,26.6,29.53,WNW,293,0.0,0.0,85,0.00,,,0.07,WUHU216HW,2013-03-12 00:34:00,
2013-03-11 19:39:00,30.6,26.9,29.53,WNW,293,0.0,0.0,86,0.00,,,0.07,WUHU216HW,2013-03-12 00:39:00,
2013-03-11 19:44:00,30.6,26.9,29.53,WNW,293,0.0,0.0,86,0.00,,,0.07,WUHU216HW,2013-03-12 00:44:00,
2013-03-11 19:49:00,30.4,26.7,29.54,WNW,293,0.0,0.0,86,0.00,,,0.07,WUHU216HW,2013-03-12 00:49:00,
2013-03-11 19:54:00,30.4,26.7,29.54,WNW,293,0.0,0.0,86,0.00,,,0.07,WUHU216HW,2013-03-12 00:54:00,
2013-03-11 19:59:00,30.4,26.7,29.54,WNW,293,0.0,0.0,86,0.00,,,0.07,WUHU216HW,2013-03-12 00:59:00,
2013-03-11 20:04:00,30.4,26.7,29.54,WNW,293,0.0,0.0,86,0.00,,,0.07,WUHU216HW,2013-03-12 01:04:00,
2013-03-11 20:09:00,30.2,26.0,29.55,WNW,293,0.0,0.0,84,0.00,,,0.07,WUHU216HW,2013-03-12 01:09:00,
2013-03-11 20:14:00,30.4,26.4,29.55,WNW,293,0.0,0.0,85,0.00,,,0.07,WUHU216HW,2013-03-12 01:14:00,
2013-03-11 20:19:00,30.2,26.2,29.55,WNW,293,0.0,0.0,85,0.00,,,0.07,WUHU216HW,2013-03-12 01:19:00,
2013-03-11 20:24:00,30.2,26.2,29.55,WNW,293,0.0,0.0,85,0.00,,,0.07,WUHU216HW,2013-03-12 01:24:00,
2013-03-11 20:29:00,30.2,26.0,29.56,WNW,293,0.0,0.0,84,0.00,,,0.07,WUHU216HW,2013-03-12 01:29:00,
2013-03-11 20:34:00,30.2,26.0,29.56,WNW,293,0.0,0.0,84,0.00,,,0.07,WUHU216HW,2013-03-12 01:34:00,
2013-03-11 20:39:00,30.2,26.0,29.56,WNW,293,0.0,0.0,84,0.00,,,0.07,WUHU216HW,2013-03-12 01:39:00,
2013-03-11 20:44:00,30.2,25.7,29.56,WNW,293,0.0,0.0,83,0.00,,,0.07,WUHU216HW,2013-03-12 01:44:00,
2013-03-11 20:49:00,30.2,26.0,29.57,WNW,293,0.0,0.0,84,0.00,,,0.07,WUHU216HW,2013-03-12 01:49:00,
2013-03-11 20:54:00,30.2,25.7,29.57,WNW,293,0.0,0.0,83,0.00,,,0.07,WUHU216HW,2013-03-12 01:54:00,
2013-03-11 20:59:00,30.1,25.6,29.57,WNW,293,0.0,0.0,83,0.00,,,0.07,WUHU216HW,2013-03-12 01:59:00,
2013-03-11 21:04:00,29.9,25.4,29.58,WNW,293,0.0,0.0,83,0.00,,,0.07,WUHU216HW,2013-03-12 02:04:00,
2013-03-11 21:09:00,29.9,25.4,29.58,WNW,293,0.0,0.0,83,0.00,,,0.07,WUHU216HW,2013-03-12 02:09:00,
2013-03-11 21:14:00,29.9,25.4,29.58,WNW,293,0.0,0.0,83,0.00,,,0.07,WUHU216HW,2013-03-12 02:14:00,
2013-03-11 21:19:00,29.7,24.9,29.58,WNW,293,0.0,0.0,82,0.00,,,0.07,WUHU216HW,2013-03-12 02:19:00,
2013-03-11 21:24:00,29.7,24.9,29.58,WNW,293,0.0,0.0,82,0.00,,,0.07,WUHU216HW,2013-03-12 02:24:00,
2013-03-11 21:29:00,29.7,24.9,29.59,WNW,293,0.0,0.0,82,0.00,,,0.07,WUHU216HW,2013-03-12 02:29:00,
2013-03-11 21:34:00,29.7,24.9,29.59,WNW,293,0.0,0.0,82,0.00,,,0.07,WUHU216HW,2013-03-12 02:34:00,
2013-03-11 21:39:00,29.5,25.3,29.59,WNW,293,0.0,0.0,84,0.00,,,0.07,WUHU216HW,2013-03-12 02:39:00,
2013-03-11 21:44:00,29.5,24.7,29.60,WNW,293,0.0,0.0,82,0.00,,,0.07,WUHU216HW,2013-03-12 02:44:00,
2013-03-11 21:49:00,29.5,24.7,29.60,WNW,293,0.0,0.0,82,0.00,,,0.07,WUHU216HW,2013-03-12 02:49:00,
2013-03-11 21:54:00,29.3,24.5,29.60,WNW,293,0.0,0.0,82,0.00,,,0.07,WUHU216HW,2013-03-12 02:54:00,
2013-03-11 21:59:00,29.3,24.8,29.60,WNW,293,0.0,0.0,83,0.00,,,0.07,WUHU216HW,2013-03-12 02:59:00,
2013-03-11 22:04:00,29.3,24.8,29.60,WNW,293,0.0,0.0,83,0.00,,,0.07,WUHU216HW,2013-03-12 03:04:00,
2013-03-11 22:09:00,29.3,24.7,29.60,WNW,293,0.0,0.0,83,0.00,,,0.07,WUHU216HW,2013-03-12 03:09:00,
2013-03-11 22:14:00,29.3,24.5,29.60,WNW,293,0.0,0.0,82,0.00,,,0.07,WUHU216HW,2013-03-12 03:14:00,
2013-03-11 22:19:00,29.3,24.2,29.60,WNW,293,0.0,0.0,81,0.00,,,0.07,WUHU216HW,2013-03-12 03:19:00,
2013-03-11 22:24:00,29.3,24.5,29.60,WNW,293,0.0,0.0,82,0.00,,,0.07,WUHU216HW,2013-03-12 03:24:00,
2013-03-11 22:29:00,29.4,24.0,29.61,WNW,293,0.0,0.0,80,0.00,,,0.07,WUHU216HW,2013-03-12 03:29:00,
2013-03-11 22:34:00,29.4,24.0,29.61,WNW,293,0.0,0.0,80,0.00,,,0.07,WUHU216HW,2013-03-12 03:34:00,
2013-03-11 22:39:00,29.4,24.1,29.61,WNW,293,0.0,0.0,80,0.00,,,0.07,WUHU216HW,2013-03-12 03:39:00,
2013-03-11 22:44:00,29.5,24.1,29.61,WNW,293,0.0,0.0,80,0.00,,,0.07,WUHU216HW,2013-03-12 03:44:00,
2013-03-11 22:49:00,29.5,24.1,29.62,WNW,293,0.0,0.0,80,0.00,,,0.07,WUHU216HW,2013-03-12 03:49:00,
2013-03-11 22:54:00,29.5,24.1,29.61,WNW,293,0.0,0.0,80,0.00,,,0.07,WUHU216HW,2013-03-12 03:54:00,
2013-03-11 22:59:00,29.5,24.2,29.61,WNW,293,0.0,0.0,80,0.00,,,0.07,WUHU216HW,2013-03-12 03:59:00,
2013-03-11 23:00:00,29.5,24.2,29.61,WNW,293,0.0,0.0,80,0.00,,,0.07,WUHU216HW,2013-03-12 04:00:00,
2013-03-11 23:05:00,29.6,24.5,29.62,WNW,293,0.0,0.0,81,0.00,,,0.07,WUHU216HW,2013-03-12 04:05:00,
2013-03-11 23:10:00,29.6,24.8,29.61,WNW,293,0.0,0.0,82,0.00,,,0.07,WUHU216HW,2013-03-12 04:10:00,
2013-03-11 23:15:00,29.4,24.3,29.62,WNW,293,0.0,0.0,81,0.00,,,0.07,WUHU216HW,2013-03-12 04:15:00,
2013-03-11 23:20:00,29.5,24.4,29.61,WNW,293,0.0,0.0,81,0.00,,,0.07,WUHU216HW,2013-03-12 04:20:00,
2013-03-11 23:25:00,29.5,24.4,29.61,WNW,293,0.0,0.0,81,0.00,,,0.07,WUHU216HW,2013-03-12 04:25:00,
2013-03-11 23:30:00,29.5,24.4,29.61,WNW,293,0.0,0.0,81,0.00,,,0.07,WUHU216HW,2013-03-12 04:30:00,
2013-03-11 23:35:00,29.5,24.2,29.62,WNW,293,0.0,0.0,80,0.00,,,0.07,WUHU216HW,2013-03-12 04:35:00,
2013-03-11 23:40:00,29.4,24.0,29.62,WNW,293,0.0,0.0,80,0.00,,,0.07,WUHU216HW,2013-03-12 04:40:00,
2013-03-11 23:45:00,29.4,24.3,29.62,WNW,293,0.0,0.0,81,0.00,,,0.07,WUHU216HW,2013-03-12 04:45:00,
2013-03-11 23:50:00,29.2,24.1,29.63,WNW,293,0.0,0.0,81,0.00,,,0.07,WUHU216HW,2013-03-12 04:50:00,
2013-03-11 23:55:00,29.0,23.9,29.63,WNW,293,0.0,0.0,81,0.00,,,0.07,WUHU216HW,2013-03-12 04:55:00,